createdAt,value
2017-02-14T00:00:05.131Z,20.74
2017-02-14T00:01:05.191Z,20.67
2017-02-14T00:02:05.486Z,20.67
2017-02-14T00:03:05.767Z,20.61
2017-02-14T00:04:05.244Z,20.69
2017-02-14T00:05:05.286Z,20.72
2017-02-14T00:06:05.299Z,20.64
2017-02-14T00:07:05.164Z,20.62
2017-02-14T00:08:05.434Z,20.73
2017-02-14T00:09:05.737Z,20.67
2017-02-14T00:10:05.002Z,20.59
2017-02-14T00:11:05.426Z,20.66
2017-02-14T00:12:06.628Z,20.62
2017-02-14T00:13:05.871Z,20.59
2017-02-14T00:14:05.113Z,20.62
2017-02-14T00:15:06.335Z,20.59
2017-02-14T00:16:06.907Z,20.64
2017-02-14T00:17:05.926Z,20.58
2017-02-14T00:18:05.609Z,20.62
2017-02-14T00:19:05.642Z,20.59
2017-02-14T00:20:06.070Z,20.57
2017-02-14T00:21:06.460Z,20.55
2017-02-14T00:22:06.421Z,20.57
2017-02-14T00:23:05.749Z,20.58
2017-02-14T00:24:06.169Z,20.57
2017-02-14T00:25:06.198Z,20.5
2017-02-14T00:26:06.496Z,20.48
2017-02-14T00:27:06.280Z,20.52
2017-02-14T00:28:06.269Z,20.48
2017-02-14T00:29:05.915Z,20.43
2017-02-14T00:30:06.035Z,20.54
2017-02-14T00:31:06.467Z,20.47
2017-02-14T00:32:06.518Z,20.52
2017-02-14T00:33:06.626Z,20.42
2017-02-14T00:34:06.045Z,20.43
2017-02-14T00:35:06.063Z,20.51
2017-02-14T00:36:06.742Z,20.5
2017-02-14T00:37:07.207Z,20.51
2017-02-14T00:38:06.849Z,20.43
2017-02-14T00:39:06.069Z,20.47
2017-02-14T00:40:06.206Z,20.52
2017-02-14T00:41:06.906Z,20.38
2017-02-14T00:42:06.815Z,20.48
2017-02-14T00:43:06.583Z,20.43
2017-02-14T00:44:06.791Z,20.47
2017-02-14T00:45:06.326Z,20.38
2017-02-14T00:46:06.875Z,20.41
2017-02-14T00:47:06.778Z,20.41
2017-02-14T00:48:06.400Z,20.38
2017-02-14T00:49:06.428Z,20.39
2017-02-14T00:50:06.669Z,20.38
2017-02-14T00:51:07.133Z,20.35
2017-02-14T00:52:06.931Z,20.38
2017-02-14T00:53:06.559Z,20.36
2017-02-14T00:54:06.631Z,20.32
2017-02-14T00:55:07.012Z,20.33
2017-02-14T00:56:07.290Z,20.35
2017-02-14T00:57:07.076Z,20.39
2017-02-14T00:58:06.679Z,20.35
2017-02-14T00:59:07.132Z,20.31
2017-02-14T01:00:07.157Z,20.32
2017-02-14T01:01:06.415Z,20.33
2017-02-14T01:02:06.873Z,20.31
2017-02-14T01:03:06.911Z,20.35
2017-02-14T01:04:06.891Z,20.31
2017-02-14T01:05:06.885Z,20.24
2017-02-14T01:06:07.057Z,20.32
2017-02-14T01:07:06.510Z,20.31
2017-02-14T01:08:07.343Z,20.29
2017-02-14T01:09:07.011Z,20.29
2017-02-14T01:10:07.392Z,20.28
2017-02-14T01:11:06.713Z,20.32
2017-02-14T01:12:07.434Z,20.33
2017-02-14T01:13:07.462Z,20.28
2017-02-14T01:14:07.483Z,20.31
2017-02-14T01:15:07.115Z,20.31
2017-02-14T01:16:07.549Z,20.17
2017-02-14T01:17:07.412Z,20.21
2017-02-14T01:18:07.605Z,20.16
2017-02-14T01:19:07.622Z,20.21
2017-02-14T01:20:07.239Z,20.17
2017-02-14T01:21:07.272Z,20.17
2017-02-14T01:22:07.949Z,20.24
2017-02-14T01:23:07.326Z,20.18
2017-02-14T01:24:07.355Z,20.14
2017-02-14T01:25:06.980Z,20.17
2017-02-14T01:26:07.008Z,20.21
2017-02-14T01:27:07.297Z,20.16
2017-02-14T01:28:07.850Z,20.21
2017-02-14T01:29:07.487Z,20.14
2017-02-14T01:30:07.510Z,20.17
2017-02-14T01:31:07.536Z,20.17
2017-02-14T01:32:08.208Z,20.14
2017-02-14T01:33:07.980Z,20.17
2017-02-14T01:34:08.005Z,20.16
2017-02-14T01:35:08.042Z,20.21
2017-02-14T01:36:08.074Z,20.18
2017-02-14T01:37:08.200Z,20.11
2017-02-14T01:38:07.716Z,20.03
2017-02-14T01:39:08.141Z,20.13
2017-02-14T01:40:08.166Z,20.13
2017-02-14T01:41:08.195Z,19.98
2017-02-14T01:42:08.073Z,20.02
2017-02-14T01:43:07.844Z,20.08
2017-02-14T01:44:07.884Z,20.05
2017-02-14T01:45:07.900Z,20.03
2017-02-14T01:46:08.327Z,20.11
2017-02-14T01:47:08.199Z,20.03
2017-02-14T01:48:07.593Z,20.05
2017-02-14T01:49:08.004Z,20.06
2017-02-14T01:50:08.429Z,20.02
2017-02-14T01:51:08.090Z,20.05
2017-02-14T01:52:08.746Z,20.1
2017-02-14T01:53:08.121Z,20.06
2017-02-14T01:54:07.732Z,20.02
2017-02-14T01:55:08.166Z,20.06
2017-02-14T01:56:08.209Z,20.05
2017-02-14T01:57:08.870Z,20.02
2017-02-14T01:58:08.243Z,20.05
2017-02-14T01:59:08.665Z,20.03
2017-02-14T02:00:08.701Z,20.05
2017-02-14T02:01:08.714Z,19.96
2017-02-14T02:02:09.003Z,20.01
2017-02-14T02:03:08.383Z,20.01
2017-02-14T02:04:08.409Z,20.02
2017-02-14T02:05:08.441Z,19.94
2017-02-14T02:06:08.444Z,19.98
2017-02-14T02:07:08.494Z,19.95
2017-02-14T02:08:08.754Z,19.99
2017-02-14T02:09:08.916Z,19.96
2017-02-14T02:10:08.548Z,19.94
2017-02-14T02:11:08.597Z,19.98
2017-02-14T02:12:09.001Z,19.96
2017-02-14T02:13:08.899Z,19.94
2017-02-14T02:14:08.266Z,19.94
2017-02-14T02:15:08.700Z,19.98
2017-02-14T02:16:09.108Z,19.92
2017-02-14T02:17:08.730Z,19.95
2017-02-14T02:18:09.415Z,19.88
2017-02-14T02:19:08.807Z,19.87
2017-02-14T02:20:09.208Z,19.96
2017-02-14T02:21:08.853Z,19.98
2017-02-14T02:22:08.878Z,19.95
2017-02-14T02:23:09.198Z,19.96
2017-02-14T02:24:09.318Z,19.96
2017-02-14T02:25:08.950Z,19.88
2017-02-14T02:26:08.963Z,19.92
2017-02-14T02:27:09.021Z,19.88
2017-02-14T02:28:08.898Z,19.83
2017-02-14T02:29:09.474Z,19.86
2017-02-14T02:30:09.476Z,19.87
2017-02-14T02:31:09.112Z,19.86
2017-02-14T02:32:09.512Z,19.83
2017-02-14T02:33:09.405Z,19.86
2017-02-14T02:34:09.185Z,19.84
2017-02-14T02:35:08.816Z,19.84
2017-02-14T02:36:09.236Z,19.84
2017-02-14T02:37:09.268Z,19.87
2017-02-14T02:38:09.533Z,19.8
2017-02-14T02:39:09.306Z,19.81
2017-02-14T02:40:09.726Z,19.87
2017-02-14T02:41:09.776Z,19.87
2017-02-14T02:42:09.380Z,19.84
2017-02-14T02:43:09.672Z,19.84
2017-02-14T02:44:09.436Z,19.78
2017-02-14T02:45:09.466Z,19.78
2017-02-14T02:46:09.884Z,19.8
2017-02-14T02:47:09.905Z,19.76
2017-02-14T02:48:10.105Z,19.78
2017-02-14T02:49:09.177Z,19.74
2017-02-14T02:50:09.990Z,19.81
2017-02-14T02:51:09.622Z,19.81
2017-02-14T02:52:09.651Z,19.81
2017-02-14T02:53:09.279Z,19.78
2017-02-14T02:54:09.697Z,19.77
2017-02-14T02:55:09.718Z,19.71
2017-02-14T02:56:09.751Z,19.74
2017-02-14T02:57:09.782Z,19.74
2017-02-14T02:58:10.208Z,19.73
2017-02-14T02:59:10.247Z,19.74
2017-02-14T03:00:10.274Z,19.77
2017-02-14T03:01:09.905Z,19.74
2017-02-14T03:02:10.310Z,19.66
2017-02-14T03:03:09.939Z,19.68
2017-02-14T03:04:09.808Z,19.71
2017-02-14T03:05:09.624Z,19.71
2017-02-14T03:06:10.025Z,19.74
2017-02-14T03:07:10.043Z,19.76
2017-02-14T03:08:10.455Z,19.73
2017-02-14T03:09:10.591Z,19.68
2017-02-14T03:10:10.101Z,19.78
2017-02-14T03:11:09.741Z,19.77
2017-02-14T03:12:10.169Z,19.73
2017-02-14T03:13:10.214Z,19.73
2017-02-14T03:14:11.127Z,19.74
2017-02-14T03:15:10.635Z,19.77
2017-02-14T03:16:10.672Z,19.69
2017-02-14T03:17:10.684Z,19.68
2017-02-14T03:18:10.712Z,19.66
2017-02-14T03:19:10.343Z,19.69
2017-02-14T03:20:10.389Z,19.66
2017-02-14T03:21:10.400Z,19.69
2017-02-14T03:22:10.429Z,19.62
2017-02-14T03:23:10.441Z,19.62
2017-02-14T03:24:10.473Z,19.66
2017-02-14T03:25:10.515Z,19.73
2017-02-14T03:26:10.579Z,19.61
2017-02-14T03:27:10.943Z,19.68
2017-02-14T03:28:10.973Z,19.68
2017-02-14T03:29:11.000Z,19.62
2017-02-14T03:30:10.622Z,19.66
2017-02-14T03:31:11.046Z,19.65
2017-02-14T03:32:10.279Z,19.65
2017-02-14T03:33:11.100Z,19.66
2017-02-14T03:34:10.737Z,19.65
2017-02-14T03:35:11.421Z,19.68
2017-02-14T03:36:10.772Z,19.65
2017-02-14T03:37:10.406Z,19.58
2017-02-14T03:38:10.442Z,19.59
2017-02-14T03:39:10.864Z,19.61
2017-02-14T03:40:10.741Z,19.61
2017-02-14T03:41:11.317Z,19.61
2017-02-14T03:42:10.535Z,19.61
2017-02-14T03:43:10.956Z,19.59
2017-02-14T03:44:10.988Z,19.62
2017-02-14T03:45:11.269Z,19.62
2017-02-14T03:46:11.047Z,19.5
2017-02-14T03:47:11.065Z,19.61
2017-02-14T03:48:11.094Z,19.5
2017-02-14T03:49:11.123Z,19.48
2017-02-14T03:50:11.657Z,19.58
2017-02-14T03:51:11.177Z,19.5
2017-02-14T03:52:10.802Z,19.48
2017-02-14T03:53:10.823Z,19.62
2017-02-14T03:54:11.264Z,19.5
2017-02-14T03:55:11.920Z,19.51
2017-02-14T03:56:10.908Z,19.47
2017-02-14T03:57:11.327Z,19.51
2017-02-14T03:58:11.353Z,19.51
2017-02-14T03:59:10.978Z,19.47
2017-02-14T04:00:11.903Z,19.54
2017-02-14T04:01:11.033Z,19.55
2017-02-14T04:02:11.846Z,19.55
2017-02-14T04:03:11.886Z,19.5
2017-02-14T04:04:11.907Z,19.55
2017-02-14T04:05:11.148Z,19.54
2017-02-14T04:06:11.163Z,19.47
2017-02-14T04:07:11.581Z,19.61
2017-02-14T04:08:11.629Z,19.5
2017-02-14T04:09:11.626Z,19.55
2017-02-14T04:10:11.667Z,19.48
2017-02-14T04:11:11.701Z,19.51
2017-02-14T04:12:12.111Z,19.55
2017-02-14T04:13:12.142Z,19.58
2017-02-14T04:14:12.165Z,19.58
2017-02-14T04:15:12.199Z,19.48
2017-02-14T04:16:11.822Z,19.44
2017-02-14T04:17:12.259Z,19.54
2017-02-14T04:18:12.272Z,19.58
2017-02-14T04:19:11.493Z,19.54
2017-02-14T04:20:11.911Z,19.46
2017-02-14T04:21:12.599Z,19.48
2017-02-14T04:22:11.980Z,19.51
2017-02-14T04:23:12.000Z,19.5
2017-02-14T04:24:11.631Z,19.47
2017-02-14T04:25:12.053Z,19.36
2017-02-14T04:26:12.351Z,19.44
2017-02-14T04:27:12.099Z,19.4
2017-02-14T04:28:12.527Z,19.48
2017-02-14T04:29:12.149Z,19.43
2017-02-14T04:30:12.576Z,19.44
2017-02-14T04:31:12.446Z,19.37
2017-02-14T04:32:11.834Z,19.44
2017-02-14T04:33:12.271Z,19.48
2017-02-14T04:34:12.279Z,19.37
2017-02-14T04:35:11.901Z,19.41
2017-02-14T04:36:12.981Z,19.41
2017-02-14T04:37:11.955Z,19.4
2017-02-14T04:38:11.983Z,19.41
2017-02-14T04:39:12.404Z,19.47
2017-02-14T04:40:12.837Z,19.41
2017-02-14T04:41:12.713Z,19.44
2017-02-14T04:42:12.106Z,19.44
2017-02-14T04:43:12.503Z,19.47
2017-02-14T04:44:12.926Z,19.46
2017-02-14T04:45:12.181Z,19.43
2017-02-14T04:46:12.837Z,19.4
2017-02-14T04:47:12.219Z,19.44
2017-02-14T04:48:12.631Z,19.46
2017-02-14T04:49:13.056Z,19.46
2017-02-14T04:50:13.108Z,19.43
2017-02-14T04:51:12.961Z,19.41
2017-02-14T04:52:12.729Z,19.46
2017-02-14T04:53:12.762Z,19.43
2017-02-14T04:54:12.402Z,19.41
2017-02-14T04:55:13.212Z,19.43
2017-02-14T04:56:13.356Z,19.44
2017-02-14T04:57:13.258Z,19.36
2017-02-14T04:58:12.894Z,19.44
2017-02-14T04:59:13.314Z,19.43
2017-02-14T05:00:12.544Z,19.37
2017-02-14T05:01:13.228Z,19.43
2017-02-14T05:02:12.995Z,19.43
2017-02-14T05:03:13.021Z,19.39
2017-02-14T05:04:13.443Z,19.33
2017-02-14T05:05:13.069Z,19.32
2017-02-14T05:06:13.767Z,19.44
2017-02-14T05:07:13.521Z,19.29
2017-02-14T05:08:13.163Z,19.36
2017-02-14T05:09:12.778Z,19.37
2017-02-14T05:10:13.199Z,19.26
2017-02-14T05:11:13.237Z,19.33
2017-02-14T05:12:13.252Z,19.37
2017-02-14T05:13:13.289Z,19.31
2017-02-14T05:14:13.310Z,19.37
2017-02-14T05:15:13.723Z,19.37
2017-02-14T05:16:13.752Z,19.29
2017-02-14T05:17:13.399Z,19.32
2017-02-14T05:18:13.408Z,19.32
2017-02-14T05:19:13.430Z,19.26
2017-02-14T05:20:13.470Z,19.33
2017-02-14T05:21:13.511Z,19.31
2017-02-14T05:22:13.522Z,19.33
2017-02-14T05:23:13.563Z,19.43
2017-02-14T05:24:13.574Z,19.36
2017-02-14T05:25:13.599Z,19.47
2017-02-14T05:26:13.609Z,19.41
2017-02-14T05:27:14.282Z,19.41
2017-02-14T05:28:13.655Z,19.46
2017-02-14T05:29:13.688Z,19.44
2017-02-14T05:30:14.113Z,19.43
2017-02-14T05:31:13.743Z,19.46
2017-02-14T05:32:14.019Z,19.61
2017-02-14T05:33:13.787Z,19.48
2017-02-14T05:34:14.213Z,19.54
2017-02-14T05:35:13.461Z,19.59
2017-02-14T05:36:13.863Z,19.59
2017-02-14T05:37:14.155Z,19.59
2017-02-14T05:38:13.927Z,19.66
2017-02-14T05:39:13.948Z,19.73
2017-02-14T05:40:13.974Z,19.69
2017-02-14T05:41:13.602Z,19.65
2017-02-14T05:42:14.535Z,19.68
2017-02-14T05:43:14.450Z,19.74
2017-02-14T05:44:14.084Z,19.81
2017-02-14T05:45:14.109Z,19.78
2017-02-14T05:46:14.121Z,19.78
2017-02-14T05:47:14.811Z,19.81
2017-02-14T05:48:14.571Z,19.83
2017-02-14T05:49:14.616Z,19.84
2017-02-14T05:50:14.225Z,19.92
2017-02-14T05:51:14.258Z,19.87
2017-02-14T05:52:14.534Z,20.01
2017-02-14T05:53:14.303Z,19.95
2017-02-14T05:54:14.724Z,20.01
2017-02-14T05:55:14.359Z,19.95
2017-02-14T05:56:14.386Z,19.98
2017-02-14T05:57:14.914Z,19.95
2017-02-14T05:58:14.447Z,20.05
2017-02-14T05:59:14.865Z,19.94
2017-02-14T06:00:14.484Z,20.08
2017-02-14T06:01:14.905Z,20.03
2017-02-14T06:02:14.548Z,20.01
2017-02-14T06:03:14.978Z,20.06
2017-02-14T06:04:14.591Z,20.17
2017-02-14T06:05:15.011Z,20.14
2017-02-14T06:06:14.649Z,20.16
2017-02-14T06:07:14.273Z,20.14
2017-02-14T06:08:14.690Z,20.2
2017-02-14T06:09:14.722Z,20.23
2017-02-14T06:10:14.745Z,20.21
2017-02-14T06:11:15.162Z,20.21
2017-02-14T06:12:14.810Z,20.13
2017-02-14T06:13:15.234Z,20.21
2017-02-14T06:14:15.238Z,20.29
2017-02-14T06:15:15.271Z,20.31
2017-02-14T06:16:14.500Z,20.32
2017-02-14T06:17:14.545Z,20.24
2017-02-14T06:18:14.554Z,20.26
2017-02-14T06:19:14.579Z,20.33
2017-02-14T06:20:15.399Z,20.36
2017-02-14T06:21:15.436Z,20.39
2017-02-14T06:22:14.656Z,20.36
2017-02-14T06:23:14.688Z,20.36
2017-02-14T06:24:15.106Z,20.38
2017-02-14T06:25:15.527Z,20.38
2017-02-14T06:26:15.159Z,20.41
2017-02-14T06:27:15.188Z,20.41
2017-02-14T06:28:15.461Z,20.48
2017-02-14T06:29:15.622Z,20.41
2017-02-14T06:30:14.873Z,20.52
2017-02-14T06:31:14.891Z,20.43
2017-02-14T06:32:15.306Z,20.52
2017-02-14T06:33:15.601Z,20.5
2017-02-14T06:34:15.769Z,20.54
2017-02-14T06:35:15.787Z,20.52
2017-02-14T06:36:15.812Z,20.51
2017-02-14T06:37:15.452Z,20.59
2017-02-14T06:38:15.727Z,20.62
2017-02-14T06:39:15.893Z,20.66
2017-02-14T06:40:15.537Z,20.67
2017-02-14T06:41:15.551Z,20.62
2017-02-14T06:42:15.568Z,20.62
2017-02-14T06:43:16.244Z,20.67
2017-02-14T06:44:15.621Z,20.64
2017-02-14T06:45:16.049Z,20.62
2017-02-14T06:46:16.090Z,20.59
2017-02-14T06:47:16.109Z,20.62
2017-02-14T06:48:16.654Z,20.61
2017-02-14T06:49:15.753Z,20.61
2017-02-14T06:50:15.406Z,20.59
2017-02-14T06:51:16.202Z,20.64
2017-02-14T06:52:16.238Z,20.66
2017-02-14T06:53:16.516Z,20.58
2017-02-14T06:54:15.887Z,20.62
2017-02-14T06:55:15.921Z,20.64
2017-02-14T06:56:16.329Z,20.64
2017-02-14T06:57:15.575Z,20.67
2017-02-14T06:58:16.646Z,20.66
2017-02-14T06:59:16.024Z,20.58
2017-02-14T07:00:15.636Z,20.66
2017-02-14T07:01:16.481Z,20.66
2017-02-14T07:02:16.093Z,20.64
2017-02-14T07:03:17.026Z,20.62
2017-02-14T07:04:16.539Z,20.66
2017-02-14T07:05:16.168Z,20.66
2017-02-14T07:06:16.608Z,20.64
2017-02-14T07:07:16.630Z,20.62
2017-02-14T07:08:16.914Z,20.61
2017-02-14T07:09:16.679Z,20.62
2017-02-14T07:10:16.318Z,20.73
2017-02-14T07:11:16.344Z,20.67
2017-02-14T07:12:15.962Z,20.66
2017-02-14T07:13:16.377Z,20.73
2017-02-14T07:14:16.795Z,20.7
2017-02-14T07:15:16.035Z,20.69
2017-02-14T07:16:16.060Z,20.66
2017-02-14T07:17:16.095Z,20.67
2017-02-14T07:18:16.907Z,20.64
2017-02-14T07:19:16.531Z,20.69
2017-02-14T07:20:16.559Z,20.62
2017-02-14T07:21:16.582Z,20.64
2017-02-14T07:22:16.633Z,20.62
2017-02-14T07:23:16.257Z,20.62
2017-02-14T07:24:16.679Z,20.66
2017-02-14T07:25:16.704Z,20.7
2017-02-14T07:26:17.123Z,20.74
2017-02-14T07:27:17.157Z,20.73
2017-02-14T07:28:16.813Z,20.67
2017-02-14T07:29:16.795Z,20.77
2017-02-14T07:30:17.223Z,20.72
2017-02-14T07:31:16.460Z,20.87
2017-02-14T07:32:17.269Z,20.85
2017-02-14T07:33:16.900Z,20.89
2017-02-14T07:34:17.185Z,20.89
2017-02-14T07:35:17.351Z,20.87
2017-02-14T07:36:17.386Z,20.85
2017-02-14T07:37:17.005Z,20.88
2017-02-14T07:38:17.027Z,20.87
2017-02-14T07:39:17.715Z,20.85
2017-02-14T07:40:17.495Z,20.87
2017-02-14T07:41:16.730Z,20.88
2017-02-14T07:42:16.747Z,20.89
2017-02-14T07:43:17.184Z,20.97
2017-02-14T07:44:17.437Z,20.89
2017-02-14T07:45:17.230Z,20.97
2017-02-14T07:46:17.669Z,20.94
2017-02-14T07:47:17.264Z,20.97
2017-02-14T07:48:16.920Z,20.89
2017-02-14T07:49:17.578Z,20.95
2017-02-14T07:50:17.346Z,20.95
2017-02-14T07:51:16.986Z,21.01
2017-02-14T07:52:17.411Z,20.91
2017-02-14T07:53:17.857Z,21.04
2017-02-14T07:54:17.705Z,20.88
2017-02-14T07:55:17.077Z,20.99
2017-02-14T07:56:17.918Z,21.04
2017-02-14T07:57:17.919Z,21.03
2017-02-14T07:58:17.955Z,20.99
2017-02-14T07:59:17.444Z,20.94
2017-02-14T08:00:18.001Z,20.98
2017-02-14T08:01:17.633Z,20.89
2017-02-14T08:02:18.070Z,20.84
2017-02-14T08:03:17.695Z,20.97
2017-02-14T08:04:18.224Z,21.09
2017-02-14T08:05:18.170Z,20.98
2017-02-14T08:06:17.765Z,20.99
2017-02-14T08:07:18.194Z,20.95
2017-02-14T08:08:17.430Z,20.94
2017-02-14T08:09:18.506Z,20.98
2017-02-14T08:10:18.272Z,20.98
2017-02-14T08:11:18.297Z,20.94
2017-02-14T08:12:18.325Z,20.92
2017-02-14T08:13:18.354Z,20.91
2017-02-14T08:14:18.242Z,20.98
2017-02-14T08:15:18.002Z,20.95
2017-02-14T08:16:18.040Z,20.98
2017-02-14T08:17:18.475Z,20.94
2017-02-14T08:18:18.093Z,20.94
2017-02-14T08:19:18.754Z,20.92
2017-02-14T08:20:18.534Z,20.99
2017-02-14T08:21:18.572Z,20.97
2017-02-14T08:22:18.192Z,20.99
2017-02-14T08:23:18.212Z,20.95
2017-02-14T08:24:18.639Z,20.97
2017-02-14T08:25:18.271Z,20.94
2017-02-14T08:26:18.700Z,20.95
2017-02-14T08:27:18.337Z,21.04
2017-02-14T08:28:17.952Z,21.07
2017-02-14T08:29:18.771Z,21.06
2017-02-14T08:30:18.800Z,21.09
2017-02-14T08:31:18.819Z,21.13
2017-02-14T08:32:18.453Z,21.28
2017-02-14T08:33:18.097Z,21.32
2017-02-14T08:34:18.901Z,21.56
2017-02-14T08:35:18.542Z,21.82
2017-02-14T08:36:18.167Z,22.1
2017-02-14T08:37:18.591Z,22.27
2017-02-14T08:38:18.237Z,22.46
2017-02-14T08:39:18.641Z,22.61
2017-02-14T08:40:18.918Z,22.8
2017-02-14T08:41:20.506Z,22.9
2017-02-14T08:42:18.719Z,23.02
2017-02-14T08:43:18.752Z,23.22
2017-02-14T08:44:19.169Z,23.22
2017-02-14T08:45:19.453Z,23.35
2017-02-14T08:46:18.838Z,23.43
2017-02-14T08:47:18.470Z,23.54
2017-02-14T08:48:18.884Z,23.53
2017-02-14T08:49:19.321Z,23.54
2017-02-14T08:50:19.189Z,23.42
2017-02-14T08:51:19.366Z,23.39
2017-02-14T08:52:18.990Z,23.23
2017-02-14T08:53:18.631Z,23.07
2017-02-14T08:54:18.648Z,22.98
2017-02-14T08:55:19.183Z,22.79
2017-02-14T08:56:19.101Z,22.67
2017-02-14T08:57:18.735Z,22.6
2017-02-14T08:58:19.155Z,22.46
2017-02-14T08:59:19.179Z,22.36
2017-02-14T09:00:19.862Z,22.33
2017-02-14T09:01:19.640Z,22.25
2017-02-14T09:02:19.269Z,22.22
2017-02-14T09:03:19.279Z,22.14
2017-02-14T09:04:19.314Z,22.12
2017-02-14T09:05:19.987Z,22.05
2017-02-14T09:06:19.760Z,22.05
2017-02-14T09:07:19.792Z,22
2017-02-14T09:08:19.426Z,22.03
2017-02-14T09:09:19.850Z,22
2017-02-14T09:10:20.383Z,21.94
2017-02-14T09:11:19.528Z,21.91
2017-02-14T09:12:19.937Z,21.92
2017-02-14T09:13:19.549Z,21.92
2017-02-14T09:14:19.186Z,21.84
2017-02-14T09:15:20.522Z,21.84
2017-02-14T09:16:19.236Z,21.82
2017-02-14T09:17:19.680Z,21.82
2017-02-14T09:18:20.096Z,21.88
2017-02-14T09:19:19.738Z,21.83
2017-02-14T09:20:20.409Z,21.8
2017-02-14T09:21:20.180Z,21.88
2017-02-14T09:22:19.796Z,21.79
2017-02-14T09:23:19.828Z,21.86
2017-02-14T09:24:19.849Z,21.77
2017-02-14T09:25:20.537Z,21.8
2017-02-14T09:26:19.911Z,21.82
2017-02-14T09:27:19.544Z,21.83
2017-02-14T09:28:20.364Z,21.8
2017-02-14T09:29:19.986Z,21.83
2017-02-14T09:30:20.406Z,21.82
2017-02-14T09:31:19.650Z,21.82
2017-02-14T09:32:19.679Z,21.82
2017-02-14T09:33:19.692Z,21.82
2017-02-14T09:34:20.140Z,21.82
2017-02-14T09:35:20.158Z,21.77
2017-02-14T09:36:20.186Z,21.8
2017-02-14T09:37:20.628Z,21.83
2017-02-14T09:38:20.628Z,21.8
2017-02-14T09:39:20.250Z,21.86
2017-02-14T09:40:20.280Z,21.82
2017-02-14T09:41:20.305Z,21.84
2017-02-14T09:42:20.343Z,21.83
2017-02-14T09:43:20.359Z,21.79
2017-02-14T09:44:20.400Z,21.86
2017-02-14T09:45:20.434Z,21.8
2017-02-14T09:46:20.454Z,21.91
2017-02-14T09:47:20.074Z,21.94
2017-02-14T09:48:20.892Z,21.94
2017-02-14T09:49:20.915Z,21.79
2017-02-14T09:50:20.553Z,21.86
2017-02-14T09:51:20.189Z,21.92
2017-02-14T09:52:20.602Z,21.91
2017-02-14T09:53:21.034Z,22
2017-02-14T09:54:20.256Z,22
2017-02-14T09:55:21.083Z,22.05
2017-02-14T09:56:20.964Z,22.03
2017-02-14T09:57:21.130Z,22.05
2017-02-14T09:58:20.761Z,22.07
2017-02-14T09:59:21.191Z,22.06
2017-02-14T10:00:21.225Z,22
2017-02-14T10:01:21.757Z,22.12
2017-02-14T10:02:20.482Z,22.17
2017-02-14T10:03:21.290Z,22.12
2017-02-14T10:04:20.933Z,22.14
2017-02-14T10:05:20.969Z,22.18
2017-02-14T10:06:21.241Z,22.21
2017-02-14T10:07:21.406Z,22.18
2017-02-14T10:08:21.434Z,22.24
2017-02-14T10:09:21.067Z,22.31
2017-02-14T10:10:21.087Z,22.31
2017-02-14T10:11:21.780Z,22.25
2017-02-14T10:12:20.761Z,22.28
2017-02-14T10:13:21.177Z,22.37
2017-02-14T10:14:21.218Z,22.33
2017-02-14T10:15:20.837Z,22.37
2017-02-14T10:16:22.146Z,22.37
2017-02-14T10:17:21.293Z,22.42
2017-02-14T10:18:21.307Z,22.36
2017-02-14T10:19:21.346Z,22.45
2017-02-14T10:20:20.963Z,22.39
2017-02-14T10:21:22.031Z,22.35
2017-02-14T10:22:21.420Z,22.39
2017-02-14T10:23:21.457Z,22.39
2017-02-14T10:24:21.074Z,22.4
2017-02-14T10:25:21.894Z,22.46
2017-02-14T10:26:21.524Z,22.39
2017-02-14T10:27:21.548Z,22.45
2017-02-14T10:28:21.977Z,22.49
2017-02-14T10:29:21.601Z,22.46
2017-02-14T10:30:21.642Z,22.47
2017-02-14T10:31:21.671Z,22.39
2017-02-14T10:32:21.684Z,22.42
2017-02-14T10:33:21.729Z,22.39
2017-02-14T10:34:22.136Z,22.45
2017-02-14T10:35:21.362Z,22.47
2017-02-14T10:36:21.786Z,22.43
2017-02-14T10:37:22.244Z,22.43
2017-02-14T10:38:22.236Z,22.39
2017-02-14T10:39:21.476Z,22.46
2017-02-14T10:40:22.411Z,22.43
2017-02-14T10:41:21.946Z,22.45
2017-02-14T10:42:22.355Z,22.4
2017-02-14T10:43:21.988Z,22.43
2017-02-14T10:44:22.013Z,22.39
2017-02-14T10:45:21.906Z,22.39
2017-02-14T10:46:22.462Z,22.37
2017-02-14T10:47:22.099Z,22.36
2017-02-14T10:48:22.115Z,22.42
2017-02-14T10:49:22.152Z,22.37
2017-02-14T10:50:22.030Z,22.36
2017-02-14T10:51:22.213Z,22.39
2017-02-14T10:52:22.618Z,22.4
2017-02-14T10:53:22.255Z,22.4
2017-02-14T10:54:22.696Z,22.37
2017-02-14T10:55:22.165Z,22.39
2017-02-14T10:56:22.734Z,22.39
2017-02-14T10:57:22.366Z,22.35
2017-02-14T10:58:22.428Z,22.42
2017-02-14T10:59:22.828Z,22.51
2017-02-14T11:00:23.107Z,22.39
2017-02-14T11:01:22.885Z,22.42
2017-02-14T11:02:22.922Z,22.47
2017-02-14T11:03:22.942Z,22.45
2017-02-14T11:04:22.167Z,22.47
2017-02-14T11:05:22.222Z,22.4
2017-02-14T11:06:22.609Z,22.4
2017-02-14T11:07:23.046Z,22.52
2017-02-14T11:08:22.678Z,22.45
2017-02-14T11:09:22.323Z,22.55
2017-02-14T11:10:22.723Z,22.51
2017-02-14T11:11:22.756Z,22.61
2017-02-14T11:12:22.422Z,22.49
2017-02-14T11:13:23.230Z,22.47
2017-02-14T11:14:22.435Z,22.51
2017-02-14T11:15:22.859Z,22.55
2017-02-14T11:16:22.488Z,22.46
2017-02-14T11:17:22.925Z,22.54
2017-02-14T11:18:23.350Z,22.51
2017-02-14T11:19:22.964Z,22.52
2017-02-14T11:20:22.996Z,22.55
2017-02-14T11:21:23.415Z,22.64
2017-02-14T11:22:23.048Z,22.54
2017-02-14T11:23:23.097Z,22.62
2017-02-14T11:24:23.533Z,22.67
2017-02-14T11:25:23.532Z,22.68
2017-02-14T11:26:23.555Z,22.65
2017-02-14T11:27:23.591Z,22.67
2017-02-14T11:28:22.817Z,22.67
2017-02-14T11:29:23.250Z,22.73
2017-02-14T11:30:23.274Z,22.68
2017-02-14T11:31:23.715Z,22.75
2017-02-14T11:32:23.744Z,22.82
2017-02-14T11:33:22.957Z,22.8
2017-02-14T11:34:23.391Z,22.82
2017-02-14T11:35:23.822Z,22.92
2017-02-14T11:36:23.839Z,22.85
2017-02-14T11:37:23.871Z,22.9
2017-02-14T11:38:23.100Z,22.92
2017-02-14T11:39:23.517Z,22.94
2017-02-14T11:40:23.558Z,23.01
2017-02-14T11:41:23.575Z,23.04
2017-02-14T11:42:23.607Z,23.1
2017-02-14T11:43:23.644Z,23.07
2017-02-14T11:44:23.269Z,23.07
2017-02-14T11:45:24.090Z,23.1
2017-02-14T11:46:24.127Z,23.19
2017-02-14T11:47:23.747Z,23.15
2017-02-14T11:48:23.379Z,23.15
2017-02-14T11:49:24.208Z,23.22
2017-02-14T11:50:24.246Z,23.27
2017-02-14T11:51:23.866Z,23.23
2017-02-14T11:52:24.274Z,23.38
2017-02-14T11:53:23.928Z,23.28
2017-02-14T11:54:24.348Z,23.33
2017-02-14T11:55:24.374Z,23.39
2017-02-14T11:56:24.394Z,23.42
2017-02-14T11:57:24.026Z,23.46
2017-02-14T11:58:24.450Z,23.48
2017-02-14T11:59:24.083Z,23.5
2017-02-14T12:00:23.708Z,23.48
2017-02-14T12:01:23.741Z,23.43
2017-02-14T12:02:24.558Z,23.57
2017-02-14T12:03:24.604Z,23.57
2017-02-14T12:04:24.227Z,23.6
2017-02-14T12:05:23.849Z,23.6
2017-02-14T12:06:24.285Z,23.66
2017-02-14T12:07:24.717Z,23.66
2017-02-14T12:08:24.334Z,23.8
2017-02-14T12:09:23.971Z,23.75
2017-02-14T12:10:23.988Z,23.88
2017-02-14T12:11:24.672Z,23.91
2017-02-14T12:12:24.862Z,23.95
2017-02-14T12:13:24.482Z,23.94
2017-02-14T12:14:24.123Z,24.03
2017-02-14T12:15:24.532Z,24.15
2017-02-14T12:16:24.424Z,24.24
2017-02-14T12:17:24.992Z,24.28
2017-02-14T12:18:24.621Z,24.34
2017-02-14T12:19:25.038Z,24.43
2017-02-14T12:20:24.672Z,24.55
2017-02-14T12:21:25.348Z,24.61
2017-02-14T12:22:24.728Z,24.64
2017-02-14T12:23:24.769Z,24.76
2017-02-14T12:24:24.785Z,24.85
2017-02-14T12:25:24.819Z,24.84
2017-02-14T12:26:24.694Z,24.88
2017-02-14T12:27:24.875Z,25.02
2017-02-14T12:28:25.300Z,25.05
2017-02-14T12:29:24.938Z,25.17
2017-02-14T12:30:24.602Z,25.13
2017-02-14T12:31:25.646Z,25.21
2017-02-14T12:32:25.016Z,25.36
2017-02-14T12:33:25.445Z,25.36
2017-02-14T12:34:25.066Z,25.36
2017-02-14T12:35:25.542Z,25.46
2017-02-14T12:36:24.990Z,25.52
2017-02-14T12:37:25.555Z,25.45
2017-02-14T12:38:25.597Z,25.54
2017-02-14T12:39:24.828Z,25.55
2017-02-14T12:40:25.250Z,25.64
2017-02-14T12:41:25.134Z,25.65
2017-02-14T12:42:25.711Z,25.72
2017-02-14T12:43:25.335Z,25.77
2017-02-14T12:44:25.368Z,25.76
2017-02-14T12:45:25.810Z,25.77
2017-02-14T12:46:26.071Z,25.88
2017-02-14T12:47:25.857Z,25.92
2017-02-14T12:48:25.877Z,25.92
2017-02-14T12:49:25.908Z,25.95
2017-02-14T12:50:25.576Z,25.88
2017-02-14T12:51:26.225Z,25.98
2017-02-14T12:52:25.607Z,25.9
2017-02-14T12:53:25.647Z,26.01
2017-02-14T12:54:26.072Z,26.02